»·PEaware :: N5205X KOSH-KOSH

N5205X :: KOSH-KOSH

FLIGHT INFORMATION

Flight Status: Arrived
Operator: Privately registered:
United States
More flights under this callsign
Pilot: Martin B. (29991)
Aircraft: CIRRUS SR-22
(SR22)
More flights by this aircraft type
Origin: KOSH Wittman Regl
United States
Destination: KOSH Wittman Regl
United States
More flights between these airports :: More routes between these airports
Route: null
File this flight plan on PilotEdge
Remarks:
Altitude:
(Current/Filed)
null
Speed:
(Current/Filed)
0kts
Departed: 21-Jul-20 12:35 PM
Arrived: 21-Jul-20 01:31 PM
Distance/Time
Traveled:
0nm/0:55
Distance/Time
To Go:
Arrived

Flight Plot

Page will automatically refresh every two minutes.

Flight plan parsing failed; only flown route is shown


Map Options




Map Legend


Flown Route
Filed Route
Departure Airport
Arrival Airport
Navaid (VOR, NDB)
Fix

Horizontal Profiles

Position Reports

Time Latitude Longitude Heading Altitude Ground
Speed
21-Jul-20 11:57 43.990339 -88.568468 308 795ft 0kts
21-Jul-20 11:58 43.990339 -88.568468 308 795ft 0kts
21-Jul-20 11:59 43.990339 -88.568468 308 795ft 0kts
21-Jul-20 12:00 43.990339 -88.568468 308 795ft 0kts
21-Jul-20 12:01 43.990339 -88.568468 308 795ft 0kts
21-Jul-20 12:02 43.990339 -88.568468 308 795ft 0kts
21-Jul-20 12:03 43.990339 -88.568468 308 795ft 0kts
21-Jul-20 12:04 43.990339 -88.568468 308 795ft 0kts
21-Jul-20 12:05 43.990339 -88.568468 308 795ft 0kts
21-Jul-20 12:06 43.990339 -88.568468 308 795ft 0kts
21-Jul-20 12:07 43.990339 -88.568468 308 795ft 0kts
21-Jul-20 12:08 43.990339 -88.568468 308 795ft 0kts
21-Jul-20 12:09 43.990339 -88.568468 308 795ft 0kts
21-Jul-20 12:10 43.990339 -88.568468 308 795ft 0kts
21-Jul-20 12:11 43.990339 -88.568468 308 795ft 0kts
21-Jul-20 12:12 44.783123 -89.672123 14 1280ft 0kts
21-Jul-20 12:13 44.783123 -89.672123 14 1280ft 0kts
21-Jul-20 12:14 44.783123 -89.672123 14 1280ft 0kts
21-Jul-20 12:15 44.783123 -89.672123 14 1280ft 0kts
21-Jul-20 12:16 44.783123 -89.672123 14 1280ft 0kts
21-Jul-20 12:17 44.783123 -89.672123 14 1280ft 0kts
21-Jul-20 12:18 44.783123 -89.672123 14 1280ft 0kts
21-Jul-20 12:19 44.783123 -89.672123 14 1280ft 0kts
21-Jul-20 12:20 44.783123 -89.672123 14 1280ft 0kts
21-Jul-20 12:21 44.783123 -89.672123 14 1280ft 0kts
21-Jul-20 12:22 44.783123 -89.672123 14 1280ft 0kts
21-Jul-20 12:23 44.783123 -89.672123 14 1280ft 0kts
21-Jul-20 12:24 44.783123 -89.672123 14 1280ft 0kts
21-Jul-20 12:25 44.783123 -89.672123 14 1280ft 0kts
21-Jul-20 12:26 44.783123 -89.672123 14 1280ft 0kts
21-Jul-20 12:27 44.783123 -89.672123 14 1280ft 0kts
21-Jul-20 12:28 44.783123 -89.672123 14 1280ft 0kts
21-Jul-20 12:29 44.783123 -89.672123 14 1280ft 0kts
21-Jul-20 12:30 44.783123 -89.672123 14 1280ft 0kts
21-Jul-20 12:31 44.782249 -89.672129 194 1280ft 12kts
21-Jul-20 12:32 44.781220 -89.674212 253 1280ft 3kts
21-Jul-20 12:33 44.781093 -89.674781 257 1280ft 11kts
21-Jul-20 12:34 44.774330 -89.673860 167 1347ft 90kts
21-Jul-20 12:35 44.749632 -89.671020 189 2974ft 91kts
21-Jul-20 12:36 44.717597 -89.679366 190 3505ft 155kts
21-Jul-20 12:37 44.672262 -89.691432 190 3500ft 170kts
21-Jul-20 12:38 44.625533 -89.703873 190 3500ft 171kts
21-Jul-20 12:39 44.581328 -89.692502 186 3494ft 170kts
21-Jul-20 12:40 44.573261 -89.694286 188 3496ft 170kts
21-Jul-20 12:41 44.573261 -89.694286 188 3496ft 170kts
21-Jul-20 12:42 44.528738 -89.705309 188 3498ft 170kts
21-Jul-20 12:43 44.482175 -89.693396 166 3498ft 170kts
21-Jul-20 12:44 44.435871 -89.678900 166 3498ft 170kts
21-Jul-20 12:45 44.389429 -89.664359 166 3499ft 172kts
21-Jul-20 12:46 44.342296 -89.649584 166 3498ft 173kts
21-Jul-20 12:47 44.295352 -89.634859 166 3498ft 173kts
21-Jul-20 12:48 44.248252 -89.620818 167 3500ft 173kts
21-Jul-20 12:49 44.200884 -89.606842 167 3500ft 173kts
21-Jul-20 12:50 44.153641 -89.592907 167 3500ft 173kts
21-Jul-20 12:51 44.106524 -89.579013 167 3500ft 173kts
21-Jul-20 12:52 44.059262 -89.565085 167 3500ft 173kts
21-Jul-20 12:53 44.011983 -89.551163 167 3498ft 170kts
21-Jul-20 12:54 43.971170 -89.539140 167 3313ft 127kts
21-Jul-20 12:55 43.944662 -89.523065 144 2786ft 97kts
21-Jul-20 12:56 43.923060 -89.501450 144 2283ft 95kts
21-Jul-20 12:57 43.902522 -89.480900 143 1994ft 78kts
21-Jul-20 12:58 43.882424 -89.458478 141 2002ft 102kts
21-Jul-20 12:59 43.864130 -89.431927 115 1999ft 94kts
21-Jul-20 13:00 43.852621 -89.399496 115 1999ft 93kts
21-Jul-20 13:01 43.841171 -89.367167 115 1999ft 93kts
21-Jul-20 13:02 43.829173 -89.333280 116 1800ft 96kts
21-Jul-20 13:03 43.817733 -89.300910 116 1800ft 95kts
21-Jul-20 13:04 43.806337 -89.268465 115 1799ft 93kts
21-Jul-20 13:05 43.794931 -89.236323 115 1799ft 92kts
21-Jul-20 13:06 43.785906 -89.203249 101 1800ft 92kts
21-Jul-20 13:07 43.780555 -89.168332 101 1799ft 92kts
21-Jul-20 13:08 43.774954 -89.133517 101 1800ft 92kts
21-Jul-20 13:09 43.766495 -89.100391 124 1800ft 92kts
21-Jul-20 13:10 43.751727 -89.071077 124 1799ft 92kts
21-Jul-20 13:11 43.757405 -89.039447 58 1800ft 92kts
21-Jul-20 13:12 43.770512 -89.008735 59 1800ft 92kts
21-Jul-20 13:13 43.783388 -88.977700 59 1799ft 92kts
21-Jul-20 13:14 43.795753 -88.947799 60 1799ft 92kts
21-Jul-20 13:15 43.808579 -88.916714 59 1799ft 92kts
21-Jul-20 13:16 43.821406 -88.885608 59 1799ft 93kts
21-Jul-20 13:17 43.834180 -88.854596 59 1799ft 93kts
21-Jul-20 13:18 43.850788 -88.827305 45 1800ft 92kts
21-Jul-20 13:19 43.868861 -88.801770 45 1799ft 92kts
21-Jul-20 13:20 43.886911 -88.776380 45 1800ft 93kts
21-Jul-20 13:21 43.905091 -88.750804 45 1799ft 92kts
21-Jul-20 13:22 43.923193 -88.725334 45 1799ft 93kts
21-Jul-20 13:24 43.940539 -88.699015 72 1795ft 93kts
21-Jul-20 13:25 43.938717 -88.663385 95 1800ft 92kts
21-Jul-20 13:26 43.935889 -88.627833 95 1800ft 93kts
21-Jul-20 13:27 43.942156 -88.598153 42 1794ft 75kts
21-Jul-20 13:28 43.942706 -88.569055 63 1547ft 79kts
21-Jul-20 13:29 43.961694 -88.556790 1 883ft 76kts
21-Jul-20 13:30 43.976091 -88.556604 359 793ft 50kts
21-Jul-20 13:31 43.985672 -88.556731 290 785ft 4kts
21-Jul-20 13:32 43.984863 -88.557955 181 788ft 0kts
21-Jul-20 13:33 43.983543 -88.557962 179 789ft 7kts
21-Jul-20 13:34 43.983081 -88.558005 200 789ft 0kts
21-Jul-20 13:35 43.983007 -88.558150 259 789ft 0kts
21-Jul-20 13:36 43.982876 -88.558304 176 789ft 0kts
21-Jul-20 13:37 43.982877 -88.558304 176 789ft 0kts
21-Jul-20 13:38 43.982877 -88.558304 176 789ft 0kts
21-Jul-20 13:39 43.982877 -88.558304 176 789ft 0kts
21-Jul-20 13:40 43.982877 -88.558304 176 789ft 0kts
21-Jul-20 13:41 43.982877 -88.558304 176 789ft 0kts
21-Jul-20 13:42 43.982877 -88.558304 176 789ft 0kts

Navigation Log

Ident Type
Flight plan parsing failed, navigation log unavailable